createdAt,value
2019-03-30T00:01:23.344Z,102456.22
2019-03-30T00:03:53.042Z,102452.68
2019-03-30T00:06:22.734Z,102450.48
2019-03-30T00:08:52.461Z,102445.95
2019-03-30T00:11:22.140Z,102445.35
2019-03-30T00:13:51.833Z,102446.75
2019-03-30T00:16:21.504Z,102447.53
2019-03-30T00:18:51.217Z,102453.11
2019-03-30T00:21:20.979Z,102449.01
2019-03-30T00:23:50.686Z,102453.53
2019-03-30T00:26:20.450Z,102445.89
2019-03-30T00:28:50.147Z,102450.86
2019-03-30T00:31:19.828Z,102443.34
2019-03-30T00:33:49.517Z,102446.64
2019-03-30T00:36:19.238Z,102441.28
2019-03-30T00:38:49.033Z,102433.34
2019-03-30T00:41:18.717Z,102435.61
2019-03-30T00:43:48.420Z,102429.02
2019-03-30T00:46:18.137Z,102423.70
2019-03-30T00:48:47.904Z,102421.62
2019-03-30T00:51:17.593Z,102412.33
2019-03-30T00:56:53.350Z,102410.62
2019-03-30T00:59:29.138Z,102404.45
2019-03-30T01:01:58.798Z,102401.66
2019-03-30T01:04:28.574Z,102390.42
2019-03-30T01:06:58.331Z,102398.09
2019-03-30T01:09:28.159Z,102390.41
2019-03-30T01:11:57.847Z,102395.96
2019-03-30T01:14:27.556Z,102396.39
2019-03-30T01:16:57.255Z,102388.75
2019-03-30T01:19:26.949Z,102396.09
2019-03-30T01:21:56.699Z,102397.08
2019-03-30T01:24:26.408Z,102384.42
2019-03-30T01:26:56.092Z,102383.89
2019-03-30T01:29:25.940Z,102382.30
2019-03-30T01:31:55.617Z,102376.00
2019-03-30T01:34:25.387Z,102372.52
2019-03-30T01:36:55.077Z,102366.66
2019-03-30T01:39:24.775Z,102364.83
2019-03-30T01:41:54.454Z,102368.92
2019-03-30T01:44:24.145Z,102362.71
2019-03-30T01:46:53.830Z,102362.71
2019-03-30T01:49:23.536Z,102360.12
2019-03-30T01:51:53.348Z,102361.59
2019-03-30T01:54:26.708Z,102357.52
2019-03-30T01:56:56.405Z,102354.99
2019-03-30T01:59:26.103Z,102349.89
2019-03-30T02:01:55.777Z,102358.78
2019-03-30T02:04:25.476Z,102348.91
2019-03-30T02:06:55.176Z,102350.30
2019-03-30T02:09:24.953Z,102350.31
2019-03-30T02:11:54.607Z,102347.63
2019-03-30T02:14:24.303Z,102349.51
2019-03-30T02:16:53.974Z,102344.63
2019-03-30T02:19:23.772Z,102334.87
2019-03-30T02:21:53.445Z,102336.25
2019-03-30T02:24:23.145Z,102335.03
2019-03-30T02:26:52.856Z,102340.40
2019-03-30T02:29:22.558Z,102338.81
2019-03-30T02:31:52.293Z,102333.34
2019-03-30T02:34:22.014Z,102332.16
2019-03-30T02:36:51.686Z,102337.64
2019-03-30T02:39:21.386Z,102337.64
2019-03-30T02:41:51.100Z,102337.27
2019-03-30T02:44:20.765Z,102331.95
2019-03-30T02:46:50.449Z,102324.81
2019-03-30T02:49:20.156Z,102325.30
2019-03-30T02:51:49.835Z,102327.77
2019-03-30T02:54:19.698Z,102317.34
2019-03-30T02:56:49.380Z,102318.63
2019-03-30T02:59:19.094Z,102311.92
2019-03-30T03:01:48.772Z,102311.23
2019-03-30T03:04:18.469Z,102309.94
2019-03-30T03:06:48.241Z,102304.09
2019-03-30T03:09:17.921Z,102299.16
2019-03-30T03:11:47.711Z,102296.20
2019-03-30T03:14:17.456Z,102289.98
2019-03-30T03:16:47.215Z,102285.00
2019-03-30T03:19:16.911Z,102283.66
2019-03-30T03:21:46.576Z,102282.86
2019-03-30T03:24:16.317Z,102282.91
2019-03-30T03:26:46.018Z,102279.84
2019-03-30T03:29:15.692Z,102281.80
2019-03-30T03:31:45.401Z,102274.13
2019-03-30T03:34:15.085Z,102272.77
2019-03-30T03:36:44.904Z,102275.83
2019-03-30T03:39:14.587Z,102269.92
2019-03-30T03:41:44.289Z,102271.75
2019-03-30T03:44:13.974Z,102268.22
2019-03-30T03:46:43.826Z,102267.72
2019-03-30T03:49:13.505Z,102268.26
2019-03-30T03:51:43.945Z,102261.99
2019-03-30T03:54:16.018Z,102253.56
2019-03-30T03:56:47.338Z,102256.20
2019-03-30T03:59:17.937Z,102252.49
2019-03-30T04:01:49.183Z,102254.67
2019-03-30T04:04:22.467Z,102247.01
2019-03-30T04:06:53.592Z,102241.64
2019-03-30T04:09:25.672Z,102242.61
2019-03-30T04:11:57.538Z,102238.16
2019-03-30T04:14:27.373Z,102239.14
2019-03-30T04:16:57.067Z,102236.55
2019-03-30T04:19:26.970Z,102238.39
2019-03-30T04:21:56.660Z,102229.12
2019-03-30T04:24:26.344Z,102234.53
2019-03-30T04:26:56.029Z,102231.81
2019-03-30T04:29:25.705Z,102233.15
2019-03-30T04:31:55.414Z,102234.00
2019-03-30T04:34:25.182Z,102229.12
2019-03-30T04:36:54.910Z,102225.30
2019-03-30T04:39:24.596Z,102215.58
2019-03-30T04:41:54.526Z,102212.42
2019-03-30T04:44:24.208Z,102209.50
2019-03-30T04:46:53.985Z,102202.04
2019-03-30T04:49:23.658Z,102202.09
2019-03-30T04:51:57.781Z,102203.23
2019-03-30T04:54:24.881Z,102195.50
2019-03-30T04:56:54.576Z,102195.50
2019-03-30T04:59:24.262Z,102192.66
2019-03-30T05:01:53.979Z,102193.14
2019-03-30T05:04:23.647Z,102196.30
2019-03-30T05:06:53.332Z,102194.05
2019-03-30T05:09:23.019Z,102195.02
2019-03-30T05:11:52.782Z,102194.42
2019-03-30T05:14:22.487Z,102195.23
2019-03-30T05:16:52.156Z,102189.37
2019-03-30T05:19:21.841Z,102186.09
2019-03-30T05:21:51.631Z,102190.89
2019-03-30T05:24:21.312Z,102188.02
2019-03-30T05:26:51.028Z,102189.31
2019-03-30T05:29:20.712Z,102190.77
2019-03-30T05:31:50.420Z,102185.48
2019-03-30T05:34:20.095Z,102189.73
2019-03-30T05:36:49.790Z,102185.93
2019-03-30T05:39:19.482Z,102188.91
2019-03-30T05:41:49.192Z,102181.57
2019-03-30T05:44:18.866Z,102187.72
2019-03-30T05:46:48.590Z,102187.86
2019-03-30T05:49:18.268Z,102178.31
2019-03-30T05:51:47.957Z,102173.56
2019-03-30T05:54:17.654Z,102174.64
2019-03-30T05:56:47.359Z,102173.77
2019-03-30T05:59:17.041Z,102161.75
2019-03-30T06:01:46.735Z,102164.03
2019-03-30T06:04:16.428Z,102165.14
2019-03-30T06:06:46.217Z,102166.24
2019-03-30T06:09:15.911Z,102159.02
2019-03-30T06:11:45.600Z,102165.39
2019-03-30T06:14:15.326Z,102156.10
2019-03-30T06:16:45.070Z,102159.92
2019-03-30T06:19:14.771Z,102156.98
2019-03-30T06:21:44.445Z,102153.99
2019-03-30T06:24:14.144Z,102148.64
2019-03-30T06:26:43.903Z,102154.98
2019-03-30T06:29:13.598Z,102145.33
2019-03-30T06:31:46.536Z,102146.77
2019-03-30T06:34:14.719Z,102146.31
2019-03-30T06:36:44.424Z,102141.41
2019-03-30T06:39:14.132Z,102147.67
2019-03-30T06:41:43.814Z,102142.97
2019-03-30T06:44:13.517Z,102144.31
2019-03-30T06:46:43.204Z,102141.23
2019-03-30T06:49:12.907Z,102141.56
2019-03-30T06:51:42.754Z,102137.53
2019-03-30T06:54:14.846Z,102141.31
2019-03-30T06:56:44.819Z,102139.95
2019-03-30T06:59:14.524Z,102132.53
2019-03-30T07:01:44.466Z,102133.55
2019-03-30T07:04:14.701Z,102130.17
2019-03-30T07:06:45.504Z,102128.47
2019-03-30T07:09:18.114Z,102126.12
2019-03-30T07:11:49.996Z,102121.72
2019-03-30T07:14:21.282Z,102112.37
2019-03-30T07:16:54.006Z,102116.77
2019-03-30T07:19:26.754Z,102117.37
2019-03-30T07:21:56.424Z,102119.84
2019-03-30T07:24:26.137Z,102116.67
2019-03-30T07:26:55.818Z,102110.05
2019-03-30T07:29:25.506Z,102108.39
2019-03-30T07:31:55.182Z,102110.06
2019-03-30T07:34:24.898Z,102107.11
2019-03-30T07:36:54.655Z,102114.09
2019-03-30T07:39:24.389Z,102107.58
2019-03-30T07:41:54.126Z,102100.71
2019-03-30T07:44:23.927Z,102099.28
2019-03-30T07:46:53.688Z,102099.49
2019-03-30T07:49:23.417Z,102102.39
2019-03-30T07:51:53.101Z,102099.34
2019-03-30T07:54:22.939Z,102102.83
2019-03-30T07:57:04.261Z,102104.64
2019-03-30T07:59:24.061Z,102097.27
2019-03-30T08:01:53.723Z,102092.54
2019-03-30T08:04:23.424Z,102098.25
2019-03-30T08:06:53.237Z,102096.77
2019-03-30T08:09:22.941Z,102088.41
2019-03-30T08:11:52.728Z,102086.34
2019-03-30T08:14:22.430Z,102082.47
2019-03-30T08:16:52.111Z,102079.09
2019-03-30T08:19:22.040Z,102086.28
2019-03-30T08:21:51.720Z,102082.66
2019-03-30T08:24:21.393Z,102082.30
2019-03-30T08:26:51.075Z,102081.00
2019-03-30T08:29:20.778Z,102078.07
2019-03-30T08:31:50.459Z,102071.89
2019-03-30T08:34:20.143Z,102066.45
2019-03-30T08:36:49.872Z,102068.78
2019-03-30T08:39:19.543Z,102064.97
2019-03-30T08:41:49.271Z,102069.26
2019-03-30T08:44:19.739Z,102068.69
2019-03-30T08:46:50.945Z,102065.77
2019-03-30T08:49:20.632Z,102067.98
2019-03-30T08:51:50.354Z,102070.19
2019-03-30T08:54:20.049Z,102056.09
2019-03-30T08:56:49.751Z,102054.66
2019-03-30T08:59:19.453Z,102055.20
2019-03-30T09:01:49.311Z,102049.48
2019-03-30T09:04:18.987Z,102050.05
2019-03-30T09:06:48.697Z,102047.28
2019-03-30T09:09:18.483Z,102049.33
2019-03-30T09:11:48.208Z,102036.08
2019-03-30T09:14:17.903Z,102038.12
2019-03-30T09:16:47.707Z,102041.22
2019-03-30T09:19:17.391Z,102035.94
2019-03-30T09:21:47.120Z,102029.34
2019-03-30T09:24:16.822Z,102019.85
2019-03-30T09:26:46.524Z,102014.48
2019-03-30T09:29:16.241Z,102015.47
2019-03-30T09:31:45.901Z,102012.80
2019-03-30T09:34:15.634Z,102006.23
2019-03-30T09:36:45.483Z,102008.46
2019-03-30T09:39:15.311Z,102001.43
2019-03-30T09:41:45.115Z,101991.39
2019-03-30T09:44:14.828Z,101990.09
2019-03-30T09:46:44.690Z,101982.42
2019-03-30T09:49:15.762Z,101977.09
2019-03-30T09:51:45.540Z,101974.89
2019-03-30T09:54:23.653Z,101977.05
2019-03-30T09:56:47.819Z,101974.58
2019-03-30T09:59:17.571Z,101973.09
2019-03-30T10:01:47.397Z,101965.39
2019-03-30T10:04:17.146Z,101965.35
2019-03-30T10:06:46.959Z,101959.20
2019-03-30T10:09:16.703Z,101965.66
2019-03-30T10:11:46.425Z,101954.33
2019-03-30T10:14:16.185Z,101958.20
2019-03-30T10:16:48.729Z,101960.33
2019-03-30T10:19:17.587Z,101963.19
2019-03-30T10:21:47.326Z,101963.94
2019-03-30T10:24:17.093Z,101955.02
2019-03-30T10:26:46.952Z,101953.84
2019-03-30T10:29:16.702Z,101949.11
2019-03-30T10:31:46.453Z,101948.94
2019-03-30T10:34:16.226Z,101946.16
2019-03-30T10:36:45.976Z,101944.41
2019-03-30T10:39:15.721Z,101947.12
2019-03-30T10:41:45.487Z,101940.50
2019-03-30T10:44:15.263Z,101937.97
2019-03-30T10:46:45.086Z,101932.80
2019-03-30T10:49:14.954Z,101932.95
2019-03-30T11:03:30.863Z,101914.70
2019-03-30T11:06:00.689Z,101905.70
2019-03-30T11:08:30.454Z,101903.34
2019-03-30T11:11:00.232Z,101894.41
2019-03-30T11:13:29.922Z,101890.03
2019-03-30T11:15:59.626Z,101891.75
2019-03-30T11:18:29.317Z,101888.17
2019-03-30T11:20:59.114Z,101887.30
2019-03-30T11:23:28.822Z,101888.55
2019-03-30T11:25:58.537Z,101890.38
2019-03-30T11:28:28.242Z,101882.91
2019-03-30T11:30:57.928Z,101888.05
2019-03-30T11:33:27.633Z,101880.42
2019-03-30T11:35:57.315Z,101876.38
2019-03-30T11:38:27.006Z,101869.16
2019-03-30T11:40:56.689Z,101872.70
2019-03-30T11:43:26.384Z,101871.28
2019-03-30T11:45:56.083Z,101868.22
2019-03-30T11:48:25.779Z,101858.43
2019-03-30T11:50:55.537Z,101853.87
2019-03-30T11:53:25.247Z,101854.47
2019-03-30T11:55:55.067Z,101839.53
2019-03-30T11:58:24.851Z,101844.89
2019-03-30T12:00:54.643Z,101833.55
2019-03-30T12:03:24.374Z,101836.16
2019-03-30T12:05:54.133Z,101838.52
2019-03-30T12:08:29.728Z,101827.80
2019-03-30T12:11:01.072Z,101819.58
2019-03-30T12:13:30.805Z,101824.67
2019-03-30T12:16:00.484Z,101822.17
2019-03-30T12:18:30.253Z,101810.43
2019-03-30T12:20:59.907Z,101811.44
2019-03-30T12:23:29.702Z,101803.31
2019-03-30T12:25:59.378Z,101798.59
2019-03-30T12:28:29.165Z,101802.22
2019-03-30T12:30:58.852Z,101804.11
2019-03-30T12:33:28.624Z,101805.50
2019-03-30T12:35:58.299Z,101793.37
2019-03-30T12:38:28.007Z,101791.89
2019-03-30T12:40:57.777Z,101791.77
2019-03-30T12:43:27.477Z,101784.15
2019-03-30T12:45:57.147Z,101779.67
2019-03-30T12:48:26.969Z,101780.17
2019-03-30T12:50:56.742Z,101782.34
2019-03-30T12:53:26.450Z,101772.83
2019-03-30T12:55:56.140Z,101768.39
2019-03-30T12:58:25.833Z,101773.63
2019-03-30T13:00:55.534Z,101769.63
2019-03-30T13:03:25.264Z,101766.39
2019-03-30T13:05:54.962Z,101756.31
2019-03-30T13:08:24.665Z,101757.22
2019-03-30T13:10:54.355Z,101749.71
2019-03-30T13:13:24.045Z,101755.47
2019-03-30T13:15:53.863Z,101750.98
2019-03-30T13:18:23.563Z,101752.25
2019-03-30T13:20:53.388Z,101745.34
2019-03-30T13:23:23.104Z,101749.77
2019-03-30T13:26:03.439Z,101738.41
2019-03-30T13:28:24.207Z,101747.77
2019-03-30T13:30:53.909Z,101747.66
2019-03-30T13:33:23.611Z,101739.83
2019-03-30T13:35:53.315Z,101731.44
2019-03-30T13:38:25.745Z,101732.01
2019-03-30T13:40:54.418Z,101731.16
2019-03-30T13:43:24.130Z,101730.55
2019-03-30T13:45:53.842Z,101731.20
2019-03-30T13:48:23.546Z,101727.44
2019-03-30T13:50:53.320Z,101716.72
2019-03-30T13:53:22.991Z,101729.48
2019-03-30T13:55:52.674Z,101721.37
2019-03-30T13:58:22.376Z,101717.21
2019-03-30T14:00:52.119Z,101711.34
2019-03-30T14:03:21.832Z,101717.81
2019-03-30T14:05:51.921Z,101712.06
2019-03-30T14:08:21.695Z,101713.84
2019-03-30T14:10:51.475Z,101713.47
2019-03-30T14:13:21.166Z,101721.95
2019-03-30T14:15:50.852Z,101709.09
2019-03-30T14:18:20.572Z,101704.86
2019-03-30T14:20:50.333Z,101691.52
2019-03-30T14:23:20.140Z,101689.14
2019-03-30T14:25:49.903Z,101695.86
2019-03-30T14:28:19.628Z,101695.74
2019-03-30T14:30:49.403Z,101698.41
2019-03-30T14:33:19.218Z,101697.42
2019-03-30T14:35:48.946Z,101690.08
2019-03-30T14:38:18.635Z,101695.08
2019-03-30T14:40:48.422Z,101690.73
2019-03-30T14:43:18.174Z,101691.08
2019-03-30T14:45:47.957Z,101692.58
2019-03-30T14:48:17.660Z,101683.03
2019-03-30T14:50:47.359Z,101678.61
2019-03-30T14:53:24.768Z,101675.13
2019-03-30T14:55:54.601Z,101681.39
2019-03-30T14:58:24.296Z,101684.17
2019-03-30T15:00:54.008Z,101681.02
2019-03-30T15:03:23.801Z,101686.77
2019-03-30T15:05:53.450Z,101677.05
2019-03-30T15:08:23.137Z,101676.80
2019-03-30T15:10:52.857Z,101665.56
2019-03-30T15:13:22.553Z,101670.42
2019-03-30T15:15:52.267Z,101666.08
2019-03-30T15:18:21.973Z,101663.86
2019-03-30T15:20:51.708Z,101665.12
2019-03-30T15:23:21.376Z,101659.11
2019-03-30T15:25:51.077Z,101657.77
2019-03-30T15:28:20.780Z,101657.91
2019-03-30T15:30:54.088Z,101659.31
2019-03-30T15:33:23.759Z,101649.20
2019-03-30T15:35:53.528Z,101659.67
2019-03-30T15:38:23.216Z,101654.08
2019-03-30T15:40:55.611Z,101649.84
2019-03-30T15:43:37.627Z,101663.42
2019-03-30T15:45:55.839Z,101653.98
2019-03-30T15:48:28.205Z,101659.78
2019-03-30T15:50:56.920Z,101665.88
2019-03-30T15:53:26.604Z,101660.40
2019-03-30T15:55:56.336Z,101660.02
2019-03-30T15:58:26.008Z,101668.25
2019-03-30T16:00:55.720Z,101666.32
2019-03-30T16:03:25.542Z,101665.22
2019-03-30T16:05:55.267Z,101671.03
2019-03-30T16:08:25.068Z,101653.83
2019-03-30T16:10:54.812Z,101671.34
2019-03-30T16:13:24.505Z,101669.86
2019-03-30T16:15:54.212Z,101679.62
2019-03-30T16:18:23.907Z,101674.89
2019-03-30T16:20:53.611Z,101674.86
2019-03-30T16:23:23.299Z,101678.63
2019-03-30T16:25:53.074Z,101673.77
2019-03-30T16:28:22.859Z,101678.63
2019-03-30T16:30:52.690Z,101679.56
2019-03-30T16:33:22.449Z,101675.27
2019-03-30T16:35:52.143Z,101671.02
2019-03-30T16:38:21.837Z,101672.38
2019-03-30T16:40:51.606Z,101671.33
2019-03-30T16:43:21.271Z,101678.26
2019-03-30T16:45:50.984Z,101668.67
2019-03-30T16:48:20.668Z,101665.41
2019-03-30T16:50:50.379Z,101665.64
2019-03-30T16:53:20.139Z,101674.71
2019-03-30T16:55:49.835Z,101675.32
2019-03-30T16:58:19.531Z,101682.75
2019-03-30T17:00:56.164Z,101680.86
2019-03-30T17:03:20.682Z,101675.81
2019-03-30T17:05:50.559Z,101676.09
2019-03-30T17:08:20.298Z,101679.59
2019-03-30T17:10:50.244Z,101675.46
2019-03-30T17:13:19.932Z,101681.80
2019-03-30T17:15:49.654Z,101686.86
2019-03-30T17:18:19.417Z,101682.66
2019-03-30T17:20:49.127Z,101686.41
2019-03-30T17:23:18.900Z,101688.89
2019-03-30T17:25:48.608Z,101692.42
2019-03-30T17:28:18.451Z,101694.80
2019-03-30T17:30:48.190Z,101692.88
2019-03-30T17:33:17.969Z,101695.66
2019-03-30T17:35:47.687Z,101688.97
2019-03-30T17:38:17.482Z,101688.98
2019-03-30T17:40:47.268Z,101693.66
2019-03-30T17:43:17.055Z,101694.47
2019-03-30T17:45:46.769Z,101695.26
2019-03-30T17:48:16.515Z,101695.97
2019-03-30T17:50:46.238Z,101693.63
2019-03-30T17:53:16.023Z,101701.70
2019-03-30T17:55:45.774Z,101699.19
2019-03-30T17:58:15.670Z,101706.48
2019-03-30T18:00:45.621Z,101700.26
2019-03-30T18:03:15.419Z,101705.44
2019-03-30T18:05:45.360Z,101711.46
2019-03-30T18:08:15.203Z,101719.42
2019-03-30T18:10:45.203Z,101712.70
2019-03-30T18:13:15.087Z,101718.61
2019-03-30T18:15:44.847Z,101721.63
2019-03-30T18:18:14.617Z,101727.52
2019-03-30T18:20:44.374Z,101729.98
2019-03-30T18:23:14.167Z,101740.34
2019-03-30T18:25:43.956Z,101736.92
2019-03-30T18:28:26.494Z,101744.84
2019-03-30T18:30:45.176Z,101735.67
2019-03-30T18:33:15.162Z,101750.88
2019-03-30T18:35:45.628Z,101750.05
2019-03-30T18:38:16.182Z,101754.95
2019-03-30T18:40:46.021Z,101758.59
2019-03-30T18:43:17.386Z,101759.86
2019-03-30T18:45:47.124Z,101757.89
2019-03-30T18:48:18.274Z,101760.34
2019-03-30T18:50:48.561Z,101758.14
2019-03-30T18:53:18.609Z,101766.80
2019-03-30T18:55:48.390Z,101764.83
2019-03-30T18:58:18.304Z,101766.58
2019-03-30T19:00:48.171Z,101766.19
2019-03-30T19:03:20.147Z,101771.39
2019-03-30T19:05:50.141Z,101774.73
2019-03-30T19:08:20.011Z,101769.94
2019-03-30T19:10:49.854Z,101776.03
2019-03-30T19:13:19.734Z,101768.62
2019-03-30T19:15:49.479Z,101763.13
2019-03-30T19:18:19.294Z,101765.11
2019-03-30T19:20:50.253Z,101770.69
2019-03-30T19:23:20.184Z,101775.58
2019-03-30T19:25:50.028Z,101775.50
2019-03-30T19:28:19.939Z,101775.48
2019-03-30T19:30:51.748Z,101781.88
2019-03-30T19:33:21.505Z,101776.91
2019-03-30T19:35:51.423Z,101781.54
2019-03-30T19:38:21.190Z,101784.48
2019-03-30T19:40:53.396Z,101782.89
2019-03-30T19:43:25.797Z,101785.02
2019-03-30T19:45:55.567Z,101787.09
2019-03-30T19:48:29.955Z,101785.59
2019-03-30T19:50:59.780Z,101787.71
2019-03-30T19:53:29.601Z,101783.41
2019-03-30T19:55:59.389Z,101791.77
2019-03-30T19:58:29.384Z,101784.11
2019-03-30T20:01:07.362Z,101783.70
2019-03-30T20:03:37.223Z,101787.48
2019-03-30T20:06:07.172Z,101789.79
2019-03-30T20:08:36.967Z,101799.66
2019-03-30T20:11:06.929Z,101808.24
2019-03-30T20:13:36.920Z,101801.97
2019-03-30T20:16:06.976Z,101804.48
2019-03-30T20:18:38.886Z,101807.73
2019-03-30T20:21:11.879Z,101799.91
2019-03-30T20:23:42.395Z,101796.64
2019-03-30T20:26:12.491Z,101803.95
2019-03-30T20:28:42.352Z,101801.50
2019-03-30T20:31:14.194Z,101802.34
2019-03-30T20:33:44.059Z,101800.10
2019-03-30T20:36:14.095Z,101810.73
2019-03-30T20:38:43.887Z,101807.50
2019-03-30T20:41:13.718Z,101808.42
2019-03-30T20:43:43.519Z,101812.60
2019-03-30T20:46:13.317Z,101810.73
2019-03-30T20:48:43.063Z,101814.24
2019-03-30T20:51:12.956Z,101812.97
2019-03-30T20:53:42.743Z,101813.05
2019-03-30T20:56:25.022Z,101809.70
2019-03-30T20:58:55.040Z,101806.45
2019-03-30T21:01:25.016Z,101807.88
2019-03-30T21:03:54.956Z,101814.19
2019-03-30T21:06:24.809Z,101818.03
2019-03-30T21:08:54.635Z,101817.44
2019-03-30T21:11:24.607Z,101819.66
2019-03-30T21:13:56.778Z,101823.80
2019-03-30T21:16:25.933Z,101821.00
2019-03-30T21:18:55.701Z,101825.60
2019-03-30T21:21:25.527Z,101827.58
2019-03-30T21:23:55.339Z,101830.28
2019-03-30T21:26:28.463Z,101828.49
2019-03-30T21:28:56.594Z,101839.41
2019-03-30T21:31:26.317Z,101838.88
2019-03-30T21:33:56.072Z,101836.84
2019-03-30T21:36:25.888Z,101841.38
2019-03-30T21:38:56.613Z,101846.66
2019-03-30T21:41:26.443Z,101847.91
2019-03-30T21:43:56.325Z,101844.50
2019-03-30T21:46:26.055Z,101843.60
2019-03-30T21:48:55.889Z,101851.42
2019-03-30T21:51:25.642Z,101853.97
2019-03-30T21:53:55.483Z,101849.64
2019-03-30T21:56:25.236Z,101855.05
2019-03-30T21:58:55.009Z,101858.56
2019-03-30T22:01:24.762Z,101851.63
2019-03-30T22:03:54.693Z,101857.89
2019-03-30T22:06:24.707Z,101855.69
2019-03-30T22:08:55.746Z,101863.94
2019-03-30T22:11:25.493Z,101867.50
2019-03-30T22:13:55.315Z,101871.68
2019-03-30T22:16:25.175Z,101869.92
2019-03-30T22:18:55.014Z,101873.69
2019-03-30T22:21:24.752Z,101874.72
2019-03-30T22:23:54.519Z,101876.55
2019-03-30T22:26:24.959Z,101871.50
2019-03-30T22:28:54.919Z,101873.99
2019-03-30T22:31:24.654Z,101877.10
2019-03-30T22:33:54.468Z,101882.12
2019-03-30T22:36:24.397Z,101880.22
2019-03-30T22:38:54.257Z,101878.33
2019-03-30T22:41:24.081Z,101875.75
2019-03-30T22:43:53.952Z,101877.79
2019-03-30T22:46:23.842Z,101886.00
2019-03-30T22:48:53.594Z,101875.92
2019-03-30T22:51:23.511Z,101875.15
2019-03-30T22:53:53.324Z,101878.05
2019-03-30T22:56:23.105Z,101877.77
2019-03-30T22:58:52.862Z,101878.39
2019-03-30T23:01:23.575Z,101876.01
2019-03-30T23:03:53.379Z,101875.96
2019-03-30T23:06:23.176Z,101871.78
2019-03-30T23:08:52.956Z,101878.98
2019-03-30T23:11:22.700Z,101879.88
2019-03-30T23:13:52.532Z,101873.13
2019-03-30T23:16:22.435Z,101886.42
2019-03-30T23:18:52.482Z,101877.64
2019-03-30T23:21:22.304Z,101880.70
2019-03-30T23:23:52.207Z,101879.62
2019-03-30T23:26:22.124Z,101878.19
2019-03-30T23:28:51.927Z,101888.86
2019-03-30T23:31:22.774Z,101892.59
2019-03-30T23:33:52.560Z,101887.73
2019-03-30T23:36:22.426Z,101883.81
2019-03-30T23:38:52.182Z,101885.03
2019-03-30T23:41:21.942Z,101883.59
2019-03-30T23:43:51.831Z,101884.76
2019-03-30T23:46:21.591Z,101887.87
2019-03-30T23:48:51.486Z,101883.45
2019-03-30T23:51:21.295Z,101883.67
2019-03-30T23:53:51.575Z,101885.30
2019-03-30T23:56:22.972Z,101883.86
2019-03-30T23:58:53.261Z,101887.73
